sensor_id;sensor_type;location;lat;lon;timestamp;P1;durP1;ratioP1;P2;durP2;ratioP2
30874;SDS011;17581;43.222;27.924;2022-08-02T00:00:47;4.95;;;3.92;;
30874;SDS011;17581;43.222;27.924;2022-08-02T00:03:13;6.25;;;3.75;;
30874;SDS011;17581;43.222;27.924;2022-08-02T00:05:38;4.43;;;3.35;;
30874;SDS011;17581;43.222;27.924;2022-08-02T00:08:04;10.48;;;4.72;;
30874;SDS011;17581;43.222;27.924;2022-08-02T00:10:29;6.03;;;4.13;;
30874;SDS011;17581;43.222;27.924;2022-08-02T00:12:55;7.13;;;4.95;;
30874;SDS011;17581;43.222;27.924;2022-08-02T00:15:20;7.65;;;4.32;;
30874;SDS011;17581;43.222;27.924;2022-08-02T00:17:46;4.00;;;3.40;;
30874;SDS011;17581;43.222;27.924;2022-08-02T00:20:12;8.50;;;3.25;;
30874;SDS011;17581;43.222;27.924;2022-08-02T00:22:38;12.63;;;3.35;;
30874;SDS011;17581;43.222;27.924;2022-08-02T00:25:03;4.80;;;3.53;;
30874;SDS011;17581;43.222;27.924;2022-08-02T00:27:29;3.28;;;2.95;;
30874;SDS011;17581;43.222;27.924;2022-08-02T00:29:54;3.63;;;2.72;;
30874;SDS011;17581;43.222;27.924;2022-08-02T00:32:22;3.85;;;2.80;;
30874;SDS011;17581;43.222;27.924;2022-08-02T00:34:49;28.30;;;3.17;;
30874;SDS011;17581;43.222;27.924;2022-08-02T00:37:15;8.65;;;2.55;;
30874;SDS011;17581;43.222;27.924;2022-08-02T00:39:47;3.30;;;3.00;;
30874;SDS011;17581;43.222;27.924;2022-08-02T00:42:13;8.27;;;2.97;;
30874;SDS011;17581;43.222;27.924;2022-08-02T00:44:40;3.28;;;2.95;;
30874;SDS011;17581;43.222;27.924;2022-08-02T00:47:05;6.07;;;3.20;;
30874;SDS011;17581;43.222;27.924;2022-08-02T00:49:31;7.20;;;3.10;;
30874;SDS011;17581;43.222;27.924;2022-08-02T00:51:56;2.90;;;2.55;;
30874;SDS011;17581;43.222;27.924;2022-08-02T00:54:22;4.15;;;3.13;;
30874;SDS011;17581;43.222;27.924;2022-08-02T00:56:47;8.40;;;2.97;;
30874;SDS011;17581;43.222;27.924;2022-08-02T00:59:13;4.97;;;2.90;;
30874;SDS011;17581;43.222;27.924;2022-08-02T01:01:38;5.43;;;3.42;;
30874;SDS011;17581;43.222;27.924;2022-08-02T01:06:31;6.82;;;3.25;;
30874;SDS011;17581;43.222;27.924;2022-08-02T01:08:57;5.00;;;3.35;;
30874;SDS011;17581;43.222;27.924;2022-08-02T01:11:24;5.60;;;3.15;;
30874;SDS011;17581;43.222;27.924;2022-08-02T01:13:49;4.53;;;3.53;;
30874;SDS011;17581;43.222;27.924;2022-08-02T01:16:17;5.93;;;3.70;;
30874;SDS011;17581;43.222;27.924;2022-08-02T01:18:46;4.80;;;3.47;;
30874;SDS011;17581;43.222;27.924;2022-08-02T01:21:34;4.32;;;2.85;;
30874;SDS011;17581;43.222;27.924;2022-08-02T01:29:55;4.47;;;3.78;;
30874;SDS011;17581;43.222;27.924;2022-08-02T01:32:24;4.85;;;3.75;;
30874;SDS011;17581;43.222;27.924;2022-08-02T01:34:59;3.58;;;3.28;;
30874;SDS011;17581;43.222;27.924;2022-08-02T01:40:12;5.88;;;3.78;;
30874;SDS011;17581;43.222;27.924;2022-08-02T01:42:44;12.15;;;3.33;;
30874;SDS011;17581;43.222;27.924;2022-08-02T01:45:12;4.85;;;3.13;;
30874;SDS011;17581;43.222;27.924;2022-08-02T01:47:40;7.45;;;3.85;;
30874;SDS011;17581;43.222;27.924;2022-08-02T01:50:08;8.40;;;3.58;;
30874;SDS011;17581;43.222;27.924;2022-08-02T01:52:38;6.47;;;3.95;;
30874;SDS011;17581;43.222;27.924;2022-08-02T01:57:44;4.22;;;3.40;;
30874;SDS011;17581;43.222;27.924;2022-08-02T02:00:13;5.60;;;3.42;;
30874;SDS011;17581;43.222;27.924;2022-08-02T02:02:41;6.13;;;3.65;;
30874;SDS011;17581;43.222;27.924;2022-08-02T02:05:18;5.60;;;3.88;;
30874;SDS011;17581;43.222;27.924;2022-08-02T02:07:49;8.48;;;4.00;;
30874;SDS011;17581;43.222;27.924;2022-08-02T02:10:26;4.60;;;3.72;;
30874;SDS011;17581;43.222;27.924;2022-08-02T02:12:57;4.38;;;3.78;;
30874;SDS011;17581;43.222;27.924;2022-08-02T02:15:27;11.38;;;3.97;;
30874;SDS011;17581;43.222;27.924;2022-08-02T02:17:55;4.75;;;4.05;;
30874;SDS011;17581;43.222;27.924;2022-08-02T02:20:22;9.63;;;4.60;;
30874;SDS011;17581;43.222;27.924;2022-08-02T02:22:48;4.70;;;4.20;;
30874;SDS011;17581;43.222;27.924;2022-08-02T02:25:15;10.65;;;4.00;;
30874;SDS011;17581;43.222;27.924;2022-08-02T02:27:51;5.38;;;4.03;;
30874;SDS011;17581;43.222;27.924;2022-08-02T02:30:20;13.48;;;4.65;;
30874;SDS011;17581;43.222;27.924;2022-08-02T02:32:49;16.45;;;5.00;;
30874;SDS011;17581;43.222;27.924;2022-08-02T02:35:17;5.68;;;4.45;;
30874;SDS011;17581;43.222;27.924;2022-08-02T02:37:45;4.57;;;4.18;;
30874;SDS011;17581;43.222;27.924;2022-08-02T02:40:13;5.95;;;3.92;;
30874;SDS011;17581;43.222;27.924;2022-08-02T02:42:40;4.95;;;4.45;;
30874;SDS011;17581;43.222;27.924;2022-08-02T02:45:08;11.07;;;5.05;;
30874;SDS011;17581;43.222;27.924;2022-08-02T02:47:35;11.32;;;4.70;;
30874;SDS011;17581;43.222;27.924;2022-08-02T02:50:02;6.80;;;4.30;;
30874;SDS011;17581;43.222;27.924;2022-08-02T02:52:29;6.72;;;4.88;;
30874;SDS011;17581;43.222;27.924;2022-08-02T02:54:55;8.23;;;4.38;;
30874;SDS011;17581;43.222;27.924;2022-08-02T02:57:22;7.88;;;4.55;;
30874;SDS011;17581;43.222;27.924;2022-08-02T02:59:48;5.18;;;4.50;;
30874;SDS011;17581;43.222;27.924;2022-08-02T03:02:15;10.73;;;4.65;;
30874;SDS011;17581;43.222;27.924;2022-08-02T03:04:41;12.52;;;5.30;;
30874;SDS011;17581;43.222;27.924;2022-08-02T03:07:08;5.32;;;4.47;;
30874;SDS011;17581;43.222;27.924;2022-08-02T03:09:34;5.35;;;4.85;;
30874;SDS011;17581;43.222;27.924;2022-08-02T03:11:59;5.43;;;4.90;;
30874;SDS011;17581;43.222;27.924;2022-08-02T03:14:25;6.80;;;4.60;;
30874;SDS011;17581;43.222;27.924;2022-08-02T03:16:52;7.43;;;5.40;;
30874;SDS011;17581;43.222;27.924;2022-08-02T03:19:19;13.02;;;5.20;;
30874;SDS011;17581;43.222;27.924;2022-08-02T03:21:46;9.85;;;4.90;;
30874;SDS011;17581;43.222;27.924;2022-08-02T03:24:12;7.20;;;4.80;;
30874;SDS011;17581;43.222;27.924;2022-08-02T03:26:39;19.50;;;6.25;;
30874;SDS011;17581;43.222;27.924;2022-08-02T03:29:05;7.07;;;5.25;;
30874;SDS011;17581;43.222;27.924;2022-08-02T03:31:31;8.15;;;5.10;;
30874;SDS011;17581;43.222;27.924;2022-08-02T03:33:57;11.60;;;4.95;;
30874;SDS011;17581;43.222;27.924;2022-08-02T03:36:27;10.27;;;6.05;;
30874;SDS011;17581;43.222;27.924;2022-08-02T03:38:54;7.43;;;5.38;;
30874;SDS011;17581;43.222;27.924;2022-08-02T03:41:21;12.10;;;7.72;;
30874;SDS011;17581;43.222;27.924;2022-08-02T03:43:47;8.30;;;5.30;;
30874;SDS011;17581;43.222;27.924;2022-08-02T03:46:14;7.82;;;5.00;;
30874;SDS011;17581;43.222;27.924;2022-08-02T03:48:42;8.30;;;5.57;;
30874;SDS011;17581;43.222;27.924;2022-08-02T03:51:09;7.53;;;5.13;;
30874;SDS011;17581;43.222;27.924;2022-08-02T03:53:35;9.60;;;5.35;;
30874;SDS011;17581;43.222;27.924;2022-08-02T03:56:01;13.40;;;5.45;;
30874;SDS011;17581;43.222;27.924;2022-08-02T03:58:28;9.52;;;5.28;;
30874;SDS011;17581;43.222;27.924;2022-08-02T04:00:54;8.32;;;5.53;;
30874;SDS011;17581;43.222;27.924;2022-08-02T04:03:22;8.75;;;4.50;;
30874;SDS011;17581;43.222;27.924;2022-08-02T04:05:48;8.73;;;5.40;;
30874;SDS011;17581;43.222;27.924;2022-08-02T04:08:14;9.38;;;5.03;;
30874;SDS011;17581;43.222;27.924;2022-08-02T04:10:39;9.25;;;5.30;;
30874;SDS011;17581;43.222;27.924;2022-08-02T04:13:25;6.63;;;5.13;;
30874;SDS011;17581;43.222;27.924;2022-08-02T04:15:56;9.48;;;5.10;;
30874;SDS011;17581;43.222;27.924;2022-08-02T04:18:24;13.40;;;6.15;;
30874;SDS011;17581;43.222;27.924;2022-08-02T04:20:54;8.52;;;5.15;;
30874;SDS011;17581;43.222;27.924;2022-08-02T04:23:23;12.02;;;5.63;;
30874;SDS011;17581;43.222;27.924;2022-08-02T04:25:51;10.65;;;6.05;;
30874;SDS011;17581;43.222;27.924;2022-08-02T04:28:17;10.60;;;5.40;;
30874;SDS011;17581;43.222;27.924;2022-08-02T04:30:44;13.23;;;5.65;;
30874;SDS011;17581;43.222;27.924;2022-08-02T04:33:11;18.33;;;6.30;;
30874;SDS011;17581;43.222;27.924;2022-08-02T04:35:37;18.33;;;5.47;;
30874;SDS011;17581;43.222;27.924;2022-08-02T04:38:02;23.23;;;5.30;;
30874;SDS011;17581;43.222;27.924;2022-08-02T04:40:29;7.53;;;5.22;;
30874;SDS011;17581;43.222;27.924;2022-08-02T04:42:54;25.63;;;5.70;;
30874;SDS011;17581;43.222;27.924;2022-08-02T04:45:20;10.13;;;5.60;;
30874;SDS011;17581;43.222;27.924;2022-08-02T04:47:45;25.27;;;5.90;;
30874;SDS011;17581;43.222;27.924;2022-08-02T04:50:11;6.68;;;5.85;;
30874;SDS011;17581;43.222;27.924;2022-08-02T04:52:36;12.80;;;5.78;;
30874;SDS011;17581;43.222;27.924;2022-08-02T04:55:02;8.55;;;5.05;;
30874;SDS011;17581;43.222;27.924;2022-08-02T04:57:27;21.05;;;6.10;;
30874;SDS011;17581;43.222;27.924;2022-08-02T05:00:11;10.57;;;6.15;;
30874;SDS011;17581;43.222;27.924;2022-08-02T05:02:37;8.35;;;5.75;;
30874;SDS011;17581;43.222;27.924;2022-08-02T05:05:03;9.45;;;5.53;;
30874;SDS011;17581;43.222;27.924;2022-08-02T05:07:29;11.45;;;6.15;;
30874;SDS011;17581;43.222;27.924;2022-08-02T05:09:54;57.75;;;9.90;;
30874;SDS011;17581;43.222;27.924;2022-08-02T05:12:22;19.52;;;6.47;;
30874;SDS011;17581;43.222;27.924;2022-08-02T05:14:50;21.35;;;7.32;;
30874;SDS011;17581;43.222;27.924;2022-08-02T05:17:15;13.70;;;6.68;;
30874;SDS011;17581;43.222;27.924;2022-08-02T05:19:41;13.95;;;6.78;;
30874;SDS011;17581;43.222;27.924;2022-08-02T05:22:06;12.85;;;7.82;;
30874;SDS011;17581;43.222;27.924;2022-08-02T05:24:32;13.65;;;7.03;;
30874;SDS011;17581;43.222;27.924;2022-08-02T05:26:57;15.60;;;7.18;;
30874;SDS011;17581;43.222;27.924;2022-08-02T05:29:23;34.95;;;9.20;;
30874;SDS011;17581;43.222;27.924;2022-08-02T05:31:48;10.82;;;7.65;;
30874;SDS011;17581;43.222;27.924;2022-08-02T05:34:14;16.38;;;7.28;;
30874;SDS011;17581;43.222;27.924;2022-08-02T05:36:39;11.10;;;7.45;;
30874;SDS011;17581;43.222;27.924;2022-08-02T05:39:05;18.08;;;8.60;;
30874;SDS011;17581;43.222;27.924;2022-08-02T05:41:31;14.45;;;7.47;;
30874;SDS011;17581;43.222;27.924;2022-08-02T05:43:57;24.02;;;8.32;;
30874;SDS011;17581;43.222;27.924;2022-08-02T05:46:22;16.00;;;7.88;;
30874;SDS011;17581;43.222;27.924;2022-08-02T05:48:48;28.25;;;8.73;;
30874;SDS011;17581;43.222;27.924;2022-08-02T05:57:00;23.05;;;7.00;;
30874;SDS011;17581;43.222;27.924;2022-08-02T06:05:13;9.52;;;6.68;;
30874;SDS011;17581;43.222;27.924;2022-08-02T06:07:44;9.00;;;6.70;;
30874;SDS011;17581;43.222;27.924;2022-08-02T06:10:11;15.70;;;7.05;;
30874;SDS011;17581;43.222;27.924;2022-08-02T06:12:45;23.50;;;10.90;;
30874;SDS011;17581;43.222;27.924;2022-08-02T06:15:25;12.35;;;7.15;;
30874;SDS011;17581;43.222;27.924;2022-08-02T06:17:51;8.65;;;6.38;;
30874;SDS011;17581;43.222;27.924;2022-08-02T06:20:17;11.13;;;8.68;;
30874;SDS011;17581;43.222;27.924;2022-08-02T06:22:44;16.30;;;7.05;;
30874;SDS011;17581;43.222;27.924;2022-08-02T06:25:11;12.55;;;7.97;;
30874;SDS011;17581;43.222;27.924;2022-08-02T06:27:40;8.52;;;6.32;;
30874;SDS011;17581;43.222;27.924;2022-08-02T06:33:15;21.98;;;8.25;;
30874;SDS011;17581;43.222;27.924;2022-08-02T06:38:23;21.67;;;7.03;;
30874;SDS011;17581;43.222;27.924;2022-08-02T06:43:33;11.15;;;6.97;;
30874;SDS011;17581;43.222;27.924;2022-08-02T06:46:08;6.95;;;6.13;;
30874;SDS011;17581;43.222;27.924;2022-08-02T06:48:34;8.02;;;6.30;;
30874;SDS011;17581;43.222;27.924;2022-08-02T06:51:01;12.45;;;7.88;;
30874;SDS011;17581;43.222;27.924;2022-08-02T06:53:28;7.82;;;6.85;;
30874;SDS011;17581;43.222;27.924;2022-08-02T06:55:53;13.40;;;7.05;;
30874;SDS011;17581;43.222;27.924;2022-08-02T06:58:19;6.97;;;6.25;;
30874;SDS011;17581;43.222;27.924;2022-08-02T07:00:48;8.63;;;6.00;;
30874;SDS011;17581;43.222;27.924;2022-08-02T07:03:13;11.77;;;6.43;;
30874;SDS011;17581;43.222;27.924;2022-08-02T07:05:39;13.27;;;6.28;;
30874;SDS011;17581;43.222;27.924;2022-08-02T07:08:06;6.40;;;5.70;;
30874;SDS011;17581;43.222;27.924;2022-08-02T07:10:31;14.55;;;6.53;;
30874;SDS011;17581;43.222;27.924;2022-08-02T07:12:57;12.68;;;6.60;;
30874;SDS011;17581;43.222;27.924;2022-08-02T07:15:22;9.98;;;5.75;;
30874;SDS011;17581;43.222;27.924;2022-08-02T07:17:48;9.23;;;6.13;;
30874;SDS011;17581;43.222;27.924;2022-08-02T07:20:13;9.82;;;5.72;;
30874;SDS011;17581;43.222;27.924;2022-08-02T07:22:39;15.40;;;6.03;;
30874;SDS011;17581;43.222;27.924;2022-08-02T07:25:05;10.43;;;6.15;;
30874;SDS011;17581;43.222;27.924;2022-08-02T07:27:31;13.23;;;5.88;;
30874;SDS011;17581;43.222;27.924;2022-08-02T07:29:57;12.65;;;7.20;;
30874;SDS011;17581;43.222;27.924;2022-08-02T07:32:23;22.05;;;6.03;;
30874;SDS011;17581;43.222;27.924;2022-08-02T07:34:50;19.20;;;5.35;;
30874;SDS011;17581;43.222;27.924;2022-08-02T07:37:17;11.43;;;6.43;;
30874;SDS011;17581;43.222;27.924;2022-08-02T07:39:42;14.82;;;6.80;;
30874;SDS011;17581;43.222;27.924;2022-08-02T07:42:08;10.70;;;5.78;;
30874;SDS011;17581;43.222;27.924;2022-08-02T07:44:33;11.23;;;5.45;;
30874;SDS011;17581;43.222;27.924;2022-08-02T07:47:02;8.65;;;6.40;;
30874;SDS011;17581;43.222;27.924;2022-08-02T07:49:29;7.82;;;5.60;;
30874;SDS011;17581;43.222;27.924;2022-08-02T07:51:55;9.90;;;5.80;;
30874;SDS011;17581;43.222;27.924;2022-08-02T07:54:21;11.73;;;5.05;;
30874;SDS011;17581;43.222;27.924;2022-08-02T07:56:47;6.53;;;5.03;;
30874;SDS011;17581;43.222;27.924;2022-08-02T07:59:12;8.13;;;5.72;;
30874;SDS011;17581;43.222;27.924;2022-08-02T08:01:38;11.13;;;6.32;;
30874;SDS011;17581;43.222;27.924;2022-08-02T08:04:04;12.80;;;5.20;;
30874;SDS011;17581;43.222;27.924;2022-08-02T08:06:30;6.88;;;5.80;;
30874;SDS011;17581;43.222;27.924;2022-08-02T08:08:56;11.02;;;5.82;;
30874;SDS011;17581;43.222;27.924;2022-08-02T08:11:22;6.90;;;4.90;;
30874;SDS011;17581;43.222;27.924;2022-08-02T08:13:48;8.38;;;5.68;;
30874;SDS011;17581;43.222;27.924;2022-08-02T08:16:14;77.40;;;8.85;;
30874;SDS011;17581;43.222;27.924;2022-08-02T08:18:39;8.63;;;4.75;;
30874;SDS011;17581;43.222;27.924;2022-08-02T08:21:04;26.75;;;5.57;;
30874;SDS011;17581;43.222;27.924;2022-08-02T08:23:30;8.75;;;5.18;;
30874;SDS011;17581;43.222;27.924;2022-08-02T08:25:56;8.40;;;5.28;;
30874;SDS011;17581;43.222;27.924;2022-08-02T08:28:21;25.77;;;5.78;;
30874;SDS011;17581;43.222;27.924;2022-08-02T08:30:47;6.95;;;5.10;;
30874;SDS011;17581;43.222;27.924;2022-08-02T08:33:13;13.35;;;5.60;;
30874;SDS011;17581;43.222;27.924;2022-08-02T08:35:38;5.85;;;4.68;;
30874;SDS011;17581;43.222;27.924;2022-08-02T08:38:04;10.82;;;5.20;;
30874;SDS011;17581;43.222;27.924;2022-08-02T08:40:30;8.35;;;4.45;;
30874;SDS011;17581;43.222;27.924;2022-08-02T08:42:55;15.38;;;4.90;;
30874;SDS011;17581;43.222;27.924;2022-08-02T08:45:21;11.05;;;5.47;;
30874;SDS011;17581;43.222;27.924;2022-08-02T08:47:50;13.05;;;5.63;;
30874;SDS011;17581;43.222;27.924;2022-08-02T08:50:21;11.13;;;4.47;;
30874;SDS011;17581;43.222;27.924;2022-08-02T08:53:02;7.70;;;4.63;;
30874;SDS011;17581;43.222;27.924;2022-08-02T08:55:30;19.77;;;6.60;;
30874;SDS011;17581;43.222;27.924;2022-08-02T08:57:57;10.85;;;4.78;;
30874;SDS011;17581;43.222;27.924;2022-08-02T09:00:24;16.95;;;5.13;;
30874;SDS011;17581;43.222;27.924;2022-08-02T09:02:49;6.32;;;5.00;;
30874;SDS011;17581;43.222;27.924;2022-08-02T09:05:16;38.22;;;6.28;;
30874;SDS011;17581;43.222;27.924;2022-08-02T09:07:42;10.90;;;4.93;;
30874;SDS011;17581;43.222;27.924;2022-08-02T09:10:33;16.42;;;4.72;;
30874;SDS011;17581;43.222;27.924;2022-08-02T09:16:01;6.25;;;4.88;;
30874;SDS011;17581;43.222;27.924;2022-08-02T09:18:31;12.70;;;4.28;;
30874;SDS011;17581;43.222;27.924;2022-08-02T09:21:05;6.97;;;3.90;;
30874;SDS011;17581;43.222;27.924;2022-08-02T09:23:36;8.10;;;4.20;;
30874;SDS011;17581;43.222;27.924;2022-08-02T09:26:08;6.82;;;4.57;;
30874;SDS011;17581;43.222;27.924;2022-08-02T09:28:37;13.70;;;3.88;;
30874;SDS011;17581;43.222;27.924;2022-08-02T09:31:06;7.53;;;4.00;;
30874;SDS011;17581;43.222;27.924;2022-08-02T09:33:37;10.63;;;3.92;;
30874;SDS011;17581;43.222;27.924;2022-08-02T09:36:10;8.95;;;3.55;;
30874;SDS011;17581;43.222;27.924;2022-08-02T09:38:38;6.82;;;3.30;;
30874;SDS011;17581;43.222;27.924;2022-08-02T09:41:04;9.40;;;3.90;;
30874;SDS011;17581;43.222;27.924;2022-08-02T09:43:43;7.70;;;3.67;;
30874;SDS011;17581;43.222;27.924;2022-08-02T09:46:16;6.90;;;3.80;;
30874;SDS011;17581;43.222;27.924;2022-08-02T09:48:56;15.68;;;3.42;;
30874;SDS011;17581;43.222;27.924;2022-08-02T09:51:30;8.43;;;3.88;;
30874;SDS011;17581;43.222;27.924;2022-08-02T09:54:16;15.90;;;4.82;;
30874;SDS011;17581;43.222;27.924;2022-08-02T09:56:46;10.00;;;4.40;;
30874;SDS011;17581;43.222;27.924;2022-08-02T09:59:13;3.90;;;2.83;;
30874;SDS011;17581;43.222;27.924;2022-08-02T10:01:41;7.82;;;4.55;;
30874;SDS011;17581;43.222;27.924;2022-08-02T10:04:08;7.18;;;4.63;;
30874;SDS011;17581;43.222;27.924;2022-08-02T10:06:37;3.33;;;2.90;;
30874;SDS011;17581;43.222;27.924;2022-08-02T10:09:04;6.32;;;3.45;;
30874;SDS011;17581;43.222;27.924;2022-08-02T10:11:30;8.63;;;3.30;;
30874;SDS011;17581;43.222;27.924;2022-08-02T10:13:56;9.25;;;3.28;;
30874;SDS011;17581;43.222;27.924;2022-08-02T10:16:22;7.93;;;3.80;;
30874;SDS011;17581;43.222;27.924;2022-08-02T10:18:57;6.30;;;3.35;;
30874;SDS011;17581;43.222;27.924;2022-08-02T10:21:29;3.95;;;3.35;;
30874;SDS011;17581;43.222;27.924;2022-08-02T10:24:05;7.47;;;3.30;;
30874;SDS011;17581;43.222;27.924;2022-08-02T10:26:32;5.60;;;3.13;;
30874;SDS011;17581;43.222;27.924;2022-08-02T10:28:59;3.97;;;3.38;;
30874;SDS011;17581;43.222;27.924;2022-08-02T10:31:26;3.85;;;3.30;;
30874;SDS011;17581;43.222;27.924;2022-08-02T10:33:57;9.00;;;3.92;;
30874;SDS011;17581;43.222;27.924;2022-08-02T10:36:25;8.77;;;3.17;;
30874;SDS011;17581;43.222;27.924;2022-08-02T10:38:56;4.93;;;3.42;;
30874;SDS011;17581;43.222;27.924;2022-08-02T10:49:46;3.67;;;3.22;;
30874;SDS011;17581;43.222;27.924;2022-08-02T10:54:59;5.97;;;3.80;;
30874;SDS011;17581;43.222;27.924;2022-08-02T10:57:27;18.58;;;4.15;;
30874;SDS011;17581;43.222;27.924;2022-08-02T11:05:01;7.93;;;3.28;;
30874;SDS011;17581;43.222;27.924;2022-08-02T11:15:49;5.07;;;3.50;;
30874;SDS011;17581;43.222;27.924;2022-08-02T11:18:17;4.78;;;3.95;;
30874;SDS011;17581;43.222;27.924;2022-08-02T11:20:44;5.65;;;4.18;;
30874;SDS011;17581;43.222;27.924;2022-08-02T11:26:56;6.22;;;4.25;;
30874;SDS011;17581;43.222;27.924;2022-08-02T11:29:00;6.20;;;4.53;;
30874;SDS011;17581;43.222;27.924;2022-08-02T11:31:27;5.93;;;4.55;;
30874;SDS011;17581;43.222;27.924;2022-08-02T11:33:53;19.10;;;4.93;;
30874;SDS011;17581;43.222;27.924;2022-08-02T11:36:19;5.60;;;4.32;;
30874;SDS011;17581;43.222;27.924;2022-08-02T11:38:44;13.82;;;5.65;;
30874;SDS011;17581;43.222;27.924;2022-08-02T11:41:20;16.08;;;5.15;;
30874;SDS011;17581;43.222;27.924;2022-08-02T11:43:52;8.10;;;4.88;;
30874;SDS011;17581;43.222;27.924;2022-08-02T11:46:18;7.90;;;5.15;;
30874;SDS011;17581;43.222;27.924;2022-08-02T11:48:44;8.13;;;4.85;;
30874;SDS011;17581;43.222;27.924;2022-08-02T11:53:41;5.28;;;4.38;;
30874;SDS011;17581;43.222;27.924;2022-08-02T11:56:14;14.80;;;4.93;;
30874;SDS011;17581;43.222;27.924;2022-08-02T11:58:41;15.13;;;5.30;;
30874;SDS011;17581;43.222;27.924;2022-08-02T12:01:25;28.95;;;5.38;;
30874;SDS011;17581;43.222;27.924;2022-08-02T12:03:51;6.75;;;4.70;;
30874;SDS011;17581;43.222;27.924;2022-08-02T12:06:17;10.80;;;4.78;;
30874;SDS011;17581;43.222;27.924;2022-08-02T12:08:42;10.65;;;4.70;;
30874;SDS011;17581;43.222;27.924;2022-08-02T12:11:08;5.38;;;4.10;;
30874;SDS011;17581;43.222;27.924;2022-08-02T12:13:40;22.63;;;7.65;;
30874;SDS011;17581;43.222;27.924;2022-08-02T12:16:12;23.13;;;9.13;;
30874;SDS011;17581;43.222;27.924;2022-08-02T12:18:58;12.95;;;5.80;;
30874;SDS011;17581;43.222;27.924;2022-08-02T12:21:42;7.68;;;4.50;;
30874;SDS011;17581;43.222;27.924;2022-08-02T12:24:09;8.52;;;4.50;;
30874;SDS011;17581;43.222;27.924;2022-08-02T12:26:44;6.50;;;4.82;;
30874;SDS011;17581;43.222;27.924;2022-08-02T12:29:11;15.93;;;6.15;;
30874;SDS011;17581;43.222;27.924;2022-08-02T12:31:38;5.40;;;4.43;;
30874;SDS011;17581;43.222;27.924;2022-08-02T12:34:15;8.02;;;4.50;;
30874;SDS011;17581;43.222;27.924;2022-08-02T12:36:43;7.03;;;4.05;;
30874;SDS011;17581;43.222;27.924;2022-08-02T12:39:31;11.85;;;4.22;;
30874;SDS011;17581;43.222;27.924;2022-08-02T12:42:09;4.68;;;3.42;;
30874;SDS011;17581;43.222;27.924;2022-08-02T12:44:37;4.75;;;3.55;;
30874;SDS011;17581;43.222;27.924;2022-08-02T12:47:13;22.98;;;5.40;;
30874;SDS011;17581;43.222;27.924;2022-08-02T12:49:39;6.65;;;4.72;;
30874;SDS011;17581;43.222;27.924;2022-08-02T12:52:17;10.68;;;4.15;;
30874;SDS011;17581;43.222;27.924;2022-08-02T12:54:47;10.70;;;3.70;;
30874;SDS011;17581;43.222;27.924;2022-08-02T12:57:16;10.48;;;4.68;;
30874;SDS011;17581;43.222;27.924;2022-08-02T12:59:49;8.43;;;4.18;;
30874;SDS011;17581;43.222;27.924;2022-08-02T13:02:16;5.50;;;3.50;;
30874;SDS011;17581;43.222;27.924;2022-08-02T13:04:42;5.78;;;3.75;;
30874;SDS011;17581;43.222;27.924;2022-08-02T13:07:08;5.22;;;3.28;;
30874;SDS011;17581;43.222;27.924;2022-08-02T13:09:36;4.80;;;3.70;;
30874;SDS011;17581;43.222;27.924;2022-08-02T13:12:06;4.70;;;3.13;;
30874;SDS011;17581;43.222;27.924;2022-08-02T13:14:32;5.15;;;3.47;;
30874;SDS011;17581;43.222;27.924;2022-08-02T13:16:58;6.82;;;3.35;;
30874;SDS011;17581;43.222;27.924;2022-08-02T13:19:25;5.53;;;3.58;;
30874;SDS011;17581;43.222;27.924;2022-08-02T13:21:51;21.35;;;11.35;;
30874;SDS011;17581;43.222;27.924;2022-08-02T13:24:17;9.45;;;3.97;;
30874;SDS011;17581;43.222;27.924;2022-08-02T13:26:44;6.40;;;3.40;;
30874;SDS011;17581;43.222;27.924;2022-08-02T13:29:10;7.40;;;4.05;;
30874;SDS011;17581;43.222;27.924;2022-08-02T13:31:36;4.35;;;2.70;;
30874;SDS011;17581;43.222;27.924;2022-08-02T13:34:06;5.60;;;3.55;;
30874;SDS011;17581;43.222;27.924;2022-08-02T13:36:33;3.95;;;3.00;;
30874;SDS011;17581;43.222;27.924;2022-08-02T13:39:00;11.60;;;3.63;;
30874;SDS011;17581;43.222;27.924;2022-08-02T13:41:28;6.45;;;2.95;;
30874;SDS011;17581;43.222;27.924;2022-08-02T13:43:54;21.85;;;8.52;;
30874;SDS011;17581;43.222;27.924;2022-08-02T13:46:19;11.07;;;3.55;;
30874;SDS011;17581;43.222;27.924;2022-08-02T13:48:45;5.68;;;2.92;;
30874;SDS011;17581;43.222;27.924;2022-08-02T13:51:10;7.97;;;3.22;;
30874;SDS011;17581;43.222;27.924;2022-08-02T13:53:37;7.43;;;3.75;;
30874;SDS011;17581;43.222;27.924;2022-08-02T13:56:03;14.77;;;4.05;;
30874;SDS011;17581;43.222;27.924;2022-08-02T13:58:29;9.15;;;3.65;;
30874;SDS011;17581;43.222;27.924;2022-08-02T14:00:54;5.07;;;2.92;;
30874;SDS011;17581;43.222;27.924;2022-08-02T14:03:20;8.98;;;3.25;;
30874;SDS011;17581;43.222;27.924;2022-08-02T14:05:45;18.52;;;4.55;;
30874;SDS011;17581;43.222;27.924;2022-08-02T14:08:11;10.48;;;4.35;;
30874;SDS011;17581;43.222;27.924;2022-08-02T14:10:37;11.85;;;3.67;;
30874;SDS011;17581;43.222;27.924;2022-08-02T14:13:03;10.95;;;4.30;;
30874;SDS011;17581;43.222;27.924;2022-08-02T14:15:28;24.83;;;4.43;;
30874;SDS011;17581;43.222;27.924;2022-08-02T14:18:00;8.60;;;4.00;;
30874;SDS011;17581;43.222;27.924;2022-08-02T14:20:26;7.05;;;3.95;;
30874;SDS011;17581;43.222;27.924;2022-08-02T14:22:52;4.90;;;3.28;;
30874;SDS011;17581;43.222;27.924;2022-08-02T14:25:17;4.78;;;2.88;;
30874;SDS011;17581;43.222;27.924;2022-08-02T14:27:43;8.85;;;3.50;;
30874;SDS011;17581;43.222;27.924;2022-08-02T14:30:08;15.05;;;3.40;;
30874;SDS011;17581;43.222;27.924;2022-08-02T14:32:34;4.45;;;2.97;;
30874;SDS011;17581;43.222;27.924;2022-08-02T14:35:00;5.70;;;3.47;;
30874;SDS011;17581;43.222;27.924;2022-08-02T14:37:25;8.95;;;3.47;;
30874;SDS011;17581;43.222;27.924;2022-08-02T14:39:51;6.95;;;3.50;;
30874;SDS011;17581;43.222;27.924;2022-08-02T14:42:16;12.90;;;4.45;;
30874;SDS011;17581;43.222;27.924;2022-08-02T14:44:42;8.35;;;3.55;;
30874;SDS011;17581;43.222;27.924;2022-08-02T14:47:07;42.00;;;8.43;;
30874;SDS011;17581;43.222;27.924;2022-08-02T14:49:34;6.50;;;3.80;;
30874;SDS011;17581;43.222;27.924;2022-08-02T14:51:59;9.65;;;4.35;;
30874;SDS011;17581;43.222;27.924;2022-08-02T14:54:25;7.57;;;3.20;;
30874;SDS011;17581;43.222;27.924;2022-08-02T14:59:23;10.48;;;3.78;;
30874;SDS011;17581;43.222;27.924;2022-08-02T15:01:49;10.90;;;3.72;;
30874;SDS011;17581;43.222;27.924;2022-08-02T15:04:14;4.97;;;3.20;;
30874;SDS011;17581;43.222;27.924;2022-08-02T15:06:40;6.53;;;3.90;;
30874;SDS011;17581;43.222;27.924;2022-08-02T15:09:05;7.30;;;4.32;;
30874;SDS011;17581;43.222;27.924;2022-08-02T15:11:31;5.35;;;4.20;;
30874;SDS011;17581;43.222;27.924;2022-08-02T15:13:56;10.40;;;4.18;;
30874;SDS011;17581;43.222;27.924;2022-08-02T15:16:25;5.53;;;3.05;;
30874;SDS011;17581;43.222;27.924;2022-08-02T15:18:55;5.95;;;3.90;;
30874;SDS011;17581;43.222;27.924;2022-08-02T15:21:33;12.95;;;6.20;;
30874;SDS011;17581;43.222;27.924;2022-08-02T15:24:07;15.43;;;5.57;;
30874;SDS011;17581;43.222;27.924;2022-08-02T15:26:32;7.63;;;6.22;;
30874;SDS011;17581;43.222;27.924;2022-08-02T15:28:58;12.68;;;6.30;;
30874;SDS011;17581;43.222;27.924;2022-08-02T15:31:23;25.40;;;7.10;;
30874;SDS011;17581;43.222;27.924;2022-08-02T15:33:49;20.00;;;7.30;;
30874;SDS011;17581;43.222;27.924;2022-08-02T15:36:14;15.68;;;5.57;;
30874;SDS011;17581;43.222;27.924;2022-08-02T15:38:40;13.90;;;7.30;;
30874;SDS011;17581;43.222;27.924;2022-08-02T15:41:07;17.08;;;7.20;;